Time;durP1;ratioP1;P1;durP2;ratioP2;P2;SDS_P1;SDS_P2;PMS_P1;PMS_P2;Temp;Humidity;BMP_temperature;BMP_pressure;BME280_temperature;BME280_humidity;BME280_pressure;Samples;Min_cycle;Max_cycle;Signal;HPM_P1;HPM_P2
2021/11/08 00:00:22;;;;;;;30.17;9.45;;;;;;;6.05;67.02;100798.97;5003201;28;20100;-43
2021/11/08 00:02:50;;;;;;;16.35;5.60;;;;;;;6.03;67.88;100806.63;5004225;28;20494;-45
2021/11/08 00:05:17;;;;;;;27.77;10.43;;;;;;;6.01;67.69;100815.94;5005126;28;20107;-45
2021/11/08 00:07:48;;;;;;;19.98;6.82;;;;;;;5.98;67.00;100804.72;5003327;28;20502;-46
2021/11/08 00:10:15;;;;;;;17.63;5.32;;;;;;;5.96;66.95;100811.50;5004668;28;20474;-45
2021/11/08 00:12:42;;;;;;;22.48;6.15;;;;;;;5.92;67.74;100811.41;5001966;28;20108;-43
2021/11/08 00:15:11;;;;;;;24.85;7.43;;;;;;;5.92;67.31;100815.69;5003369;28;20104;-44
2021/11/08 00:20:28;;;;;;;17.08;5.68;;;;;;;5.87;68.01;100818.13;4992094;28;20104;-44
2021/11/08 00:22:55;;;;;;;11.80;3.35;;;;;;;5.86;67.92;100813.81;5001528;28;20058;-44
2021/11/08 00:25:22;;;;;;;12.02;3.20;;;;;;;5.81;67.68;100810.22;5002409;28;20116;-42
2021/11/08 00:27:49;;;;;;;8.10;2.80;;;;;;;5.81;67.69;100825.66;4996823;28;20053;-49
2021/11/08 00:30:15;;;;;;;16.65;5.07;;;;;;;5.81;67.28;100833.38;5005996;28;20050;-46
2021/11/08 00:32:42;;;;;;;20.98;4.95;;;;;;;5.80;67.57;100831.63;5004403;28;20123;-45
2021/11/08 00:35:09;;;;;;;17.83;3.33;;;;;;;5.77;67.41;100828.97;5004548;28;20100;-46
2021/11/08 00:37:36;;;;;;;9.65;2.67;;;;;;;5.76;68.18;100840.09;5001974;28;20053;-50
2021/11/08 00:40:06;;;;;;;18.33;6.40;;;;;;;5.74;67.58;100841.75;5000415;28;20119;-54
2021/11/08 00:42:33;;;;;;;11.50;3.75;;;;;;;5.73;67.24;100837.41;5000716;28;20054;-46
2021/11/08 00:45:00;;;;;;;19.67;4.18;;;;;;;5.70;68.24;100832.16;5001426;28;24800;-41
2021/11/08 00:47:26;;;;;;;11.15;3.42;;;;;;;5.70;67.29;100834.75;5000082;28;20494;-45
2021/11/08 00:49:58;;;;;;;13.32;3.75;;;;;;;5.68;67.39;100833.84;4996478;28;20045;-45
2021/11/08 00:52:24;;;;;;;15.55;3.88;;;;;;;5.66;67.44;100850.09;5001034;28;20096;-41
2021/11/08 00:54:51;;;;;;;12.30;5.10;;;;;;;5.65;67.63;100858.63;5000100;28;20050;-45
2021/11/08 00:57:21;;;;;;;15.75;5.00;;;;;;;5.64;67.59;100849.16;4998170;28;20653;-45
2021/11/08 00:59:48;;;;;;;;;;;;;;;5.50;68.42;100841.03;4998735;28;20161;-46
2021/11/08 01:02:17;;;;;;;8.32;2.80;;;;;;;5.56;68.51;100845.50;4998552;28;19954;-49
2021/11/08 01:04:44;;;;;;;10.45;3.20;;;;;;;5.56;68.23;100845.50;5000900;28;20050;-46
2021/11/08 01:07:11;;;;;;;14.85;3.65;;;;;;;5.55;68.55;100848.91;5002674;28;20053;-48
2021/11/08 01:09:38;;;;;;;12.65;4.00;;;;;;;5.54;67.95;100852.28;4998929;28;20469;-41
2021/11/08 01:12:06;;;;;;;15.55;4.57;;;;;;;5.53;68.27;100845.41;5003646;28;20050;-43
2021/11/08 01:14:34;;;;;;;20.13;3.85;;;;;;;5.50;68.30;100840.16;5000058;28;20041;-42
2021/11/08 01:17:04;;;;;;;14.02;2.90;;;;;;;5.48;67.48;100837.56;5005486;28;20058;-48
2021/11/08 01:19:33;;;;;;;9.65;3.03;;;;;;;5.47;68.38;100847.78;5001556;28;20090;-50
2021/11/08 01:22:06;;;;;;;9.10;2.95;;;;;;;5.44;67.41;100850.25;5003117;28;20367;-48
2021/11/08 01:24:39;;;;;;;11.95;3.05;;;;;;;5.39;68.05;100856.13;5003395;28;20390;-50
2021/11/08 01:27:07;;;;;;;8.82;2.75;;;;;;;5.34;68.00;100855.09;5002757;28;20058;-47
2021/11/08 01:29:34;;;;;;;11.88;3.08;;;;;;;5.31;67.98;100849.00;5002198;28;20053;-45
2021/11/08 01:32:06;;;;;;;9.23;3.15;;;;;;;5.27;68.40;100845.47;5001804;28;20059;-49
2021/11/08 01:34:32;;;;;;;8.27;2.97;;;;;;;5.25;68.10;100844.53;5001567;28;20097;-45
2021/11/08 01:37:00;;;;;;;9.93;2.95;;;;;;;5.25;67.92;100841.97;5004325;28;20478;-44
2021/11/08 01:39:33;;;;;;;15.48;2.97;;;;;;;5.26;68.40;100847.16;5003275;28;20054;-43
2021/11/08 01:42:05;;;;;;;12.80;3.20;;;;;;;5.25;68.54;100834.25;5005950;28;20045;-43
2021/11/08 01:44:32;;;;;;;12.52;2.63;;;;;;;5.23;68.66;100821.38;4999152;28;20050;-44
2021/11/08 01:47:01;;;;;;;10.57;2.97;;;;;;;5.22;68.55;100818.75;5002218;28;20112;-47
2021/11/08 01:49:29;;;;;;;10.13;2.97;;;;;;;5.19;68.67;100827.22;5000545;28;20054;-44
2021/11/08 01:51:57;;;;;;;9.38;2.58;;;;;;;5.20;68.42;100835.81;5001157;28;20441;-44
2021/11/08 01:54:24;;;;;;;7.55;2.75;;;;;;;5.20;68.30;100835.81;5003158;28;20502;-46
2021/11/08 01:56:54;;;;;;;10.93;2.50;;;;;;;5.20;68.26;100843.53;5001891;28;20100;-44
2021/11/08 01:59:23;;;;;;;10.32;2.53;;;;;;;5.19;68.77;100840.06;5001226;28;20096;-43
2021/11/08 02:01:51;;;;;;;14.48;3.20;;;;;;;5.16;68.89;100839.97;5001106;28;20588;-47
2021/11/08 02:04:18;;;;;;;7.57;3.08;;;;;;;5.13;68.25;100820.19;5004287;28;20046;-51
2021/11/08 02:06:46;;;;;;;6.82;2.38;;;;;;;5.10;69.19;100817.53;5001292;28;20053;-45
2021/11/08 02:09:13;;;;;;;12.63;2.47;;;;;;;5.11;69.43;100832.13;5001835;28;20119;-49
2021/11/08 02:11:41;;;;;;;12.27;2.60;;;;;;;5.09;69.18;100828.63;5001124;28;20041;-49
2021/11/08 02:14:08;;;;;;;11.50;2.53;;;;;;;5.08;69.21;100833.72;5000778;28;20045;-51
2021/11/08 02:16:36;;;;;;;7.25;2.10;;;;;;;5.06;69.05;100833.66;5005625;28;20061;-48
2021/11/08 02:19:04;;;;;;;9.93;2.25;;;;;;;5.06;69.01;100835.38;5003943;28;20462;-45
2021/11/08 02:21:33;;;;;;;11.75;2.50;;;;;;;5.05;69.01;100831.94;5006591;28;20046;-48
2021/11/08 02:24:02;;;;;;;16.70;2.35;;;;;;;5.03;69.04;100838.69;5007958;28;20119;-42
2021/11/08 02:26:28;;;;;;;7.90;1.88;;;;;;;5.02;69.20;100844.66;5006405;28;20049;-42
2021/11/08 02:28:55;;;;;;;11.15;2.75;;;;;;;5.01;69.17;100850.63;5006716;28;20046;-46
2021/11/08 02:31:23;;;;;;;10.85;2.53;;;;;;;5.00;68.94;100846.31;5002186;28;20437;-44
2021/11/08 02:33:53;;;;;;;7.13;2.05;;;;;;;4.98;68.77;100836.00;5007985;28;20053;-45
2021/11/08 02:36:21;;;;;;;7.75;3.28;;;;;;;4.97;68.80;100828.25;5005816;28;20058;-45
2021/11/08 02:38:53;;;;;;;13.27;3.17;;;;;;;4.96;69.00;100826.50;5004014;28;20470;-50
2021/11/08 02:41:20;;;;;;;13.15;3.00;;;;;;;4.95;69.19;100829.88;5000537;28;20050;-50
2021/11/08 02:43:47;;;;;;;10.00;2.10;;;;;;;4.94;69.41;100835.84;5001337;28;20105;-41
2021/11/08 02:46:16;;;;;;;8.43;2.25;;;;;;;4.94;69.36;100843.53;4998930;28;20045;-42
2021/11/08 02:48:46;;;;;;;10.07;2.33;;;;;;;4.93;69.21;100849.50;5005813;28;20112;-49
2021/11/08 02:51:22;;;;;;;12.10;2.38;;;;;;;4.92;68.68;100842.59;5008900;28;20528;-52
2021/11/08 02:53:52;;;;;;;13.43;2.10;;;;;;;4.88;69.02;100821.97;5003891;28;20050;-43
2021/11/08 02:56:20;;;;;;;7.18;2.03;;;;;;;4.88;69.33;100824.56;5000520;28;20046;-47
2021/11/08 02:58:47;;;;;;;9.15;2.10;;;;;;;4.87;69.35;100822.78;5003019;28;20077;-44
2021/11/08 03:01:23;;;;;;;8.25;2.92;;;;;;;4.86;69.50;100821.03;5002507;28;20625;-48
2021/11/08 03:03:54;;;;;;;6.82;1.92;;;;;;;4.84;69.52;100832.09;5004665;28;20556;-46
2021/11/08 03:06:31;;;;;;;11.82;2.33;;;;;;;4.85;68.98;100842.41;5004731;28;20108;-44
2021/11/08 03:09:14;;;;;;;10.18;2.03;;;;;;;4.83;69.19;100836.34;5003092;28;20065;-48
2021/11/08 03:11:41;;;;;;;9.18;2.10;;;;;;;4.83;69.63;100832.91;5004757;28;21152;-42
2021/11/08 03:14:10;;;;;;;7.15;1.67;;;;;;;4.83;69.57;100838.06;5002729;28;20049;-46
2021/11/08 03:19:26;;;;;;;14.93;3.10;;;;;;;4.79;69.63;100839.63;4999619;28;20050;-43
2021/11/08 03:21:57;;;;;;;10.57;2.05;;;;;;;4.79;69.53;100834.50;5004076;28;20509;-48
2021/11/08 03:24:46;;;;;;;8.60;1.42;;;;;;;4.79;70.02;100833.63;5005300;28;20050;-50
2021/11/08 03:27:24;;;;;;;12.05;2.42;;;;;;;4.79;69.78;100837.06;5004878;28;20045;-54
2021/11/08 03:29:52;;;;;;;10.55;2.35;;;;;;;4.76;70.17;100826.69;5002894;28;20104;-45
2021/11/08 03:32:22;;;;;;;6.03;1.40;;;;;;;4.78;70.08;100832.75;5005703;28;20041;-47
2021/11/08 03:34:56;;;;;;;9.75;2.10;;;;;;;4.79;69.91;100831.94;5005026;28;20058;-47
2021/11/08 03:37:24;;;;;;;12.82;1.95;;;;;;;4.79;70.18;100834.50;5005429;28;20402;-45
2021/11/08 03:39:51;;;;;;;10.65;1.83;;;;;;;4.79;69.83;100842.19;5003978;28;20050;-47
2021/11/08 03:42:18;;;;;;;6.05;1.92;;;;;;;4.80;69.84;100831.09;5004127;28;20046;-46
2021/11/08 03:44:47;;;;;;;10.18;2.08;;;;;;;4.80;69.93;100828.53;5002556;28;20100;-46
2021/11/08 03:47:14;;;;;;;6.63;2.60;;;;;;;4.79;70.17;100829.34;5005749;28;20050;-50
2021/11/08 03:49:41;;;;;;;8.93;2.15;;;;;;;4.77;70.13;100823.31;5002100;28;20732;-45
2021/11/08 03:52:08;;;;;;;11.40;2.15;;;;;;;4.77;70.04;100820.75;5007461;28;20049;-45
2021/11/08 03:54:35;;;;;;;7.60;1.77;;;;;;;4.78;70.18;100811.34;5003566;28;20490;-43
2021/11/08 03:57:03;;;;;;;8.90;1.67;;;;;;;4.76;69.76;100813.84;4990477;28;20046;-43
2021/11/08 03:59:29;;;;;;;7.75;1.85;;;;;;;4.76;70.38;100813.84;5003022;28;20050;-41
2021/11/08 04:02:00;;;;;;;13.43;2.03;;;;;;;4.77;70.29;100815.63;5006577;28;20662;-43
2021/11/08 04:04:26;;;;;;;11.38;1.75;;;;;;;4.78;69.96;100829.31;5006071;28;20096;-48
2021/11/08 04:06:53;;;;;;;11.30;2.38;;;;;;;4.75;70.27;100819.81;5004233;28;20115;-42
2021/11/08 04:09:20;;;;;;;7.45;1.73;;;;;;;4.74;70.28;100820.63;5004819;28;20057;-44
2021/11/08 04:11:47;;;;;;;11.80;2.10;;;;;;;4.74;70.33;100825.78;5004563;28;20081;-48
2021/11/08 04:14:15;;;;;;;10.95;1.63;;;;;;;4.71;70.40;100821.41;5007410;28;20053;-47
2021/11/08 04:16:43;;;;;;;9.82;1.83;;;;;;;4.70;70.23;100821.34;5003701;28;20045;-48
2021/11/08 04:19:11;;;;;;;8.80;2.28;;;;;;;4.69;70.38;100829.88;5003200;28;20100;-43
2021/11/08 04:21:39;;;;;;;11.68;2.17;;;;;;;4.67;70.42;100828.94;5004608;28;20042;-43
2021/11/08 04:24:06;;;;;;;7.55;1.75;;;;;;;4.67;70.49;100826.38;5003206;28;20087;-45
2021/11/08 04:26:34;;;;;;;6.03;2.22;;;;;;;4.67;69.97;100823.81;5001147;28;20453;-45
2021/11/08 04:29:03;;;;;;;9.48;2.15;;;;;;;4.65;70.19;100820.31;4997247;28;20112;-45
2021/11/08 04:31:35;;;;;;;7.55;1.98;;;;;;;4.63;69.71;100813.44;5001925;28;20104;-43
2021/11/08 04:34:16;;;;;;;9.07;2.53;;;;;;;4.63;70.32;100816.00;5006483;28;20474;-47
2021/11/08 04:37:09;;;;;;;6.15;2.35;;;;;;;4.62;70.22;100816.84;5002903;28;20157;-46
2021/11/08 04:39:45;;;;;;;8.05;2.00;;;;;;;4.61;70.59;100824.47;4984810;28;20046;-49
2021/11/08 04:42:18;;;;;;;9.02;1.98;;;;;;;4.60;70.73;100823.59;5006216;28;20680;-46
2021/11/08 04:45:10;;;;;;;7.68;2.17;;;;;;;4.56;70.42;100832.00;5002655;28;20062;-40
2021/11/08 04:56:22;;;;;;;11.18;2.35;;;;;;;4.55;71.30;100824.25;5001712;28;20105;-47
2021/11/08 05:32:00;;;;;;;9.90;2.30;;;;;;;4.59;70.34;100837.25;4994731;28;20070;-46
2021/11/08 05:34:27;;;;;;;9.55;1.83;;;;;;;4.59;70.75;100842.38;5003525;28;20050;-46
2021/11/08 05:36:54;;;;;;;9.52;1.83;;;;;;;4.59;70.37;100841.53;5001998;28;20104;-44
2021/11/08 05:39:20;;;;;;;7.18;2.00;;;;;;;4.58;70.46;100840.66;5003660;28;20053;-44
2021/11/08 05:41:48;;;;;;;12.43;2.38;;;;;;;4.56;70.59;100842.28;5003022;28;20066;-46
2021/11/08 05:44:14;;;;;;;8.48;2.00;;;;;;;4.52;70.38;100845.56;5004499;28;20045;-52
2021/11/08 05:46:41;;;;;;;8.70;1.65;;;;;;;4.48;71.22;100846.28;5007840;28;20096;-51
2021/11/08 05:49:08;;;;;;;11.57;1.92;;;;;;;4.46;70.86;100850.50;5002051;28;20439;-47
2021/11/08 05:51:35;;;;;;;6.47;1.77;;;;;;;4.46;70.54;100850.50;5009308;28;20650;-45
2021/11/08 05:54:02;;;;;;;4.15;1.75;;;;;;;4.46;70.72;100847.91;5006309;28;20105;-44
2021/11/08 05:56:52;;;;;;;8.05;1.83;;;;;;;4.44;70.78;100844.41;5009808;28;20095;-42
2021/11/08 06:49:20;;;;;;;5.88;1.95;;;;;;;4.36;71.75;100880.91;4992754;28;20050;-46
2021/11/08 06:51:50;;;;;;;7.07;1.63;;;;;;;4.35;71.10;100871.50;5007425;28;20053;-48
2021/11/08 06:54:18;;;;;;;9.95;1.80;;;;;;;4.36;71.24;100875.78;5007623;28;20080;-46
2021/11/08 06:56:52;;;;;;;5.13;1.50;;;;;;;4.40;71.20;100876.78;5002826;28;20050;-44
2021/11/08 06:59:20;;;;;;;8.07;1.95;;;;;;;4.43;71.54;100865.75;5002062;28;20061;-43
2021/11/08 07:01:48;;;;;;;6.18;2.08;;;;;;;4.46;72.04;100863.31;5000093;28;20057;-46
2021/11/08 07:04:16;;;;;;;5.10;1.60;;;;;;;4.50;71.72;100867.72;5003888;28;20042;-45
2021/11/08 07:06:44;;;;;;;8.23;1.77;;;;;;;4.57;71.44;100867.13;5000774;28;20054;-45
2021/11/08 07:09:11;;;;;;;9.07;2.45;;;;;;;4.63;71.64;100875.03;5008069;28;20096;-50
2021/11/08 07:11:39;;;;;;;8.82;1.95;;;;;;;4.67;71.43;100876.03;5004692;28;20445;-46
2021/11/08 07:14:07;;;;;;;8.77;1.67;;;;;;;4.69;72.20;100873.50;4999780;28;20377;-47
2021/11/08 07:16:35;;;;;;;6.82;1.63;;;;;;;4.73;71.70;100876.22;4999433;28;20728;-45
2021/11/08 07:19:02;;;;;;;13.60;1.95;;;;;;;4.79;71.84;100875.56;4981319;28;20077;-45
2021/11/08 07:21:28;;;;;;;7.55;1.50;;;;;;;4.84;71.31;100879.19;5000402;28;20046;-53
2021/11/08 07:23:55;;;;;;;24.35;3.05;;;;;;;4.91;71.54;100874.22;4999363;28;20045;-45
2021/11/08 07:26:22;;;;;;;11.27;3.13;;;;;;;4.97;71.34;100882.16;5000709;28;21231;-45
2021/11/08 07:28:48;;;;;;;8.70;2.10;;;;;;;5.02;71.49;100878.03;5003067;28;20430;-46
2021/11/08 07:31:16;;;;;;;19.55;5.93;;;;;;;5.06;71.62;100874.75;5003154;28;20046;-50
2021/11/08 07:33:42;;;;;;;9.38;2.15;;;;;;;5.10;71.65;100871.47;5003356;28;20054;-45
2021/11/08 07:36:10;;;;;;;12.13;2.95;;;;;;;5.14;71.69;100872.44;4990478;28;20133;-49
2021/11/08 07:38:37;;;;;;;9.98;2.83;;;;;;;5.20;71.91;100876.91;4997761;28;20121;-48
2021/11/08 07:41:07;;;;;;;8.57;3.72;;;;;;;5.24;71.70;100878.75;4999306;28;20057;-45
2021/11/08 07:43:38;;;;;;;44.05;12.73;;;;;;;5.28;71.31;100872.91;5002771;28;20052;-43
2021/11/08 07:46:06;;;;;;;33.70;9.13;;;;;;;5.33;71.20;100870.47;5000083;28;20054;-48
2021/11/08 07:48:39;;;;;;;30.88;10.38;;;;;;;5.38;70.81;100862.06;5001755;28;20053;-50
2021/11/08 07:51:08;;;;;;;9.88;3.05;;;;;;;5.42;71.74;100873.34;5002192;28;20081;-49
2021/11/08 07:53:35;;;;;;;19.92;7.82;;;;;;;5.43;70.91;100869.94;4998354;28;20065;-48
2021/11/08 07:56:02;;;;;;;12.73;3.65;;;;;;;5.49;70.69;100874.38;5004135;28;20054;-44
2021/11/08 07:58:28;;;;;;;8.80;2.50;;;;;;;5.51;71.70;100885.59;5000795;28;20050;-49
2021/11/08 08:00:55;;;;;;;10.23;3.03;;;;;;;5.55;71.42;100884.88;5001903;28;20042;-51
2021/11/08 08:03:24;;;;;;;8.98;2.33;;;;;;;5.59;71.15;100885.81;5004199;28;20053;-45
2021/11/08 08:05:53;;;;;;;9.93;2.97;;;;;;;5.62;70.89;100884.25;5001130;28;20664;-48
2021/11/08 08:08:20;;;;;;;12.80;2.65;;;;;;;5.67;71.23;100884.38;5004807;28;20045;-47
2021/11/08 08:10:51;;;;;;;16.13;6.38;;;;;;;5.69;71.84;100882.72;5000349;28;20050;-44
2021/11/08 08:13:22;;;;;;;7.57;2.28;;;;;;;5.71;71.38;100886.19;5001807;28;20058;-50
2021/11/08 08:15:50;;;;;;;16.30;4.75;;;;;;;5.77;70.96;100880.38;5003647;28;20061;-46
2021/11/08 08:18:17;;;;;;;14.15;3.83;;;;;;;5.83;71.66;100875.44;5002173;28;20053;-46
2021/11/08 08:20:44;;;;;;;10.73;5.25;;;;;;;5.91;70.88;100886.81;5002585;28;20398;-45
2021/11/08 08:23:10;;;;;;;15.70;4.40;;;;;;;5.97;70.99;100885.25;5001971;28;20099;-44
2021/11/08 08:25:37;;;;;;;14.35;6.07;;;;;;;6.05;71.77;100894.13;5004348;28;20049;-47
2021/11/08 08:28:04;;;;;;;6.03;2.25;;;;;;;6.10;71.20;100884.81;4999700;28;20111;-48
2021/11/08 08:30:31;;;;;;;10.15;3.97;;;;;;;6.17;71.65;100884.19;5001311;28;20053;-50
2021/11/08 08:32:57;;;;;;;9.10;2.30;;;;;;;6.24;70.56;100886.91;4996047;28;20095;-45
2021/11/08 08:35:24;;;;;;;7.57;2.38;;;;;;;6.31;71.52;100883.69;4980704;28;20046;-48
2021/11/08 08:37:51;;;;;;;9.48;3.40;;;;;;;6.37;71.93;100881.31;5005911;28;20046;-46
2021/11/08 08:40:18;;;;;;;16.80;4.78;;;;;;;6.45;71.87;100880.66;4992507;28;20079;-44
2021/11/08 08:42:45;;;;;;;46.53;14.07;;;;;;;6.51;70.37;100884.25;5001692;28;20053;-48
2021/11/08 08:45:12;;;;;;;34.47;10.90;;;;;;;6.58;70.27;100875.00;5004127;28;20558;-42
2021/11/08 08:47:42;;;;;;;15.48;3.40;;;;;;;6.60;70.64;100865.63;4990517;28;20053;-48
2021/11/08 08:50:09;;;;;;;10.93;2.17;;;;;;;6.66;70.24;100881.22;4993896;28;20050;-44
2021/11/08 08:52:37;;;;;;;9.65;2.20;;;;;;;6.70;71.25;100882.19;4997263;28;20049;-47
2021/11/08 08:55:04;;;;;;;11.57;3.38;;;;;;;6.78;71.00;100900.41;4991847;28;20058;-48
2021/11/08 08:57:31;;;;;;;4.63;1.92;;;;;;;6.85;71.04;100889.44;4991389;28;20441;-49
2021/11/08 09:00:00;;;;;;;18.00;5.25;;;;;;;6.92;71.51;100883.59;4996867;28;20085;-46
2021/11/08 09:02:48;;;;;;;16.48;6.10;;;;;;;7.03;70.24;100870.16;4995673;28;20257;-45
2021/11/08 09:05:15;;;;;;;9.82;2.35;;;;;;;7.07;71.01;100861.66;4996176;28;20438;-52
2021/11/08 09:07:47;;;;;;;12.90;3.50;;;;;;;7.15;70.30;100860.13;4994390;28;20048;-51
2021/11/08 09:10:14;;;;;;;7.50;1.65;;;;;;;7.24;70.84;100863.75;4995359;28;20107;-44
2021/11/08 09:12:40;;;;;;;9.23;2.80;;;;;;;7.32;70.42;100857.09;4995191;28;20046;-48
2021/11/08 09:15:07;;;;;;;13.00;2.95;;;;;;;7.36;69.90;100858.91;5000363;28;20057;-45
2021/11/08 09:17:34;;;;;;;7.30;1.38;;;;;;;7.39;69.28;100858.97;5000065;28;20089;-47
2021/11/08 09:20:07;;;;;;;9.50;1.20;;;;;;;7.40;70.59;100860.72;5000088;28;20131;-47
2021/11/08 09:22:34;;;;;;;6.68;1.70;;;;;;;7.43;70.10;100871.09;4995565;28;20057;-45
2021/11/08 09:25:01;;;;;;;13.45;2.83;;;;;;;7.49;70.22;100875.53;5000056;28;20103;-48
2021/11/08 09:27:28;;;;;;;12.35;2.92;;;;;;;7.51;70.27;100867.84;4998886;28;20054;-49
2021/11/08 09:29:54;;;;;;;16.75;4.97;;;;;;;7.57;70.35;100874.00;5002723;28;20441;-48
2021/11/08 09:32:21;;;;;;;13.95;4.05;;;;;;;7.64;70.00;100874.16;5000656;28;20058;-44
2021/11/08 09:34:49;;;;;;;16.67;2.70;;;;;;;7.67;70.33;100877.66;5000264;28;20041;-46
2021/11/08 09:37:18;;;;;;;15.82;3.03;;;;;;;7.71;69.53;100882.03;5002244;28;20046;-45
2021/11/08 09:39:46;;;;;;;11.05;1.63;;;;;;;7.78;70.54;100879.59;5001328;28;20598;-50
2021/11/08 09:42:15;;;;;;;18.45;4.88;;;;;;;7.84;68.81;100869.44;5003881;28;20054;-54
2021/11/08 09:44:43;;;;;;;18.83;3.67;;;;;;;7.91;69.41;100884.19;4999769;28;20096;-51
2021/11/08 09:47:11;;;;;;;8.45;1.83;;;;;;;7.96;70.16;100869.69;4996948;28;20046;-44
2021/11/08 09:49:46;;;;;;;7.47;1.90;;;;;;;8.10;70.20;100869.09;4999049;28;20568;-48
2021/11/08 09:52:13;;;;;;;5.60;1.70;;;;;;;8.30;69.44;100871.22;4999078;28;20403;-44
2021/11/08 09:54:58;;;;;;;9.05;1.85;;;;;;;8.83;70.34;100867.06;4998891;28;20046;-53
2021/11/08 09:57:26;;;;;;;15.40;3.85;;;;;;;9.15;69.44;100881.41;4998287;28;20052;-43
2021/11/08 09:59:53;;;;;;;12.02;4.38;;;;;;;9.27;68.94;100879.00;5000144;28;20057;-51
2021/11/08 10:02:31;;;;;;;22.02;5.95;;;;;;;9.37;68.30;100872.25;4997400;28;20491;-53
2021/11/08 10:04:58;;;;;;;11.55;2.13;;;;;;;9.43;67.16;100867.19;5002882;28;20108;-45
2021/11/08 10:07:28;;;;;;;8.57;1.92;;;;;;;9.51;67.53;100863.00;4999022;28;20111;-48
2021/11/08 10:09:54;;;;;;;10.88;1.52;;;;;;;9.77;67.75;100859.91;5004825;28;20054;-48
2021/11/08 10:12:21;;;;;;;8.82;1.95;;;;;;;10.48;67.69;100859.09;5003285;28;20100;-53
2021/11/08 10:14:48;;;;;;;10.70;1.80;;;;;;;11.13;67.66;100863.13;5001346;28;20066;-47
2021/11/08 10:17:15;;;;;;;4.15;1.70;;;;;;;11.78;66.20;100857.47;5003510;28;20046;-46
2021/11/08 10:19:42;;;;;;;8.38;1.42;;;;;;;12.25;65.84;100861.19;5003634;28;20532;-46
2021/11/08 10:22:10;;;;;;;9.50;1.63;;;;;;;12.51;63.32;100855.22;4998271;28;20120;-44
2021/11/08 10:24:38;;;;;;;9.10;1.70;;;;;;;12.68;63.03;100851.75;5002247;28;20441;-48
2021/11/08 10:27:09;;;;;;;5.53;1.42;;;;;;;12.93;61.65;100851.78;5005556;28;20050;-48
2021/11/08 10:29:43;;;;;;;4.40;1.10;;;;;;;13.05;60.33;100851.78;5002279;28;20058;-49
2021/11/08 10:32:12;;;;;;;4.25;1.33;;;;;;;13.15;61.90;100856.97;5002265;28;20490;-51
2021/11/08 10:34:53;;;;;;;6.15;2.20;;;;;;;13.20;61.56;100861.31;5004208;28;20736;-52
2021/11/08 10:37:26;;;;;;;10.10;1.58;;;;;;;13.33;60.36;100863.91;5003431;28;20050;-48
2021/11/08 10:39:54;;;;;;;7.53;1.50;;;;;;;13.64;60.41;100871.69;5008987;28;20115;-51
2021/11/08 10:42:24;;;;;;;7.03;1.92;;;;;;;13.81;59.78;100869.03;5006152;28;20104;-47
2021/11/08 10:44:53;;;;;;;11.45;1.65;;;;;;;13.84;60.13;100857.75;5004821;28;20542;-53
2021/11/08 10:47:21;;;;;;;7.60;1.88;;;;;;;13.90;59.78;100862.06;5006734;28;20054;-53
2021/11/08 10:49:49;;;;;;;8.75;1.55;;;;;;;13.96;58.77;100862.06;5005292;28;20077;-52
2021/11/08 10:52:18;;;;;;;7.30;1.88;;;;;;;14.01;58.32;100860.28;4977488;28;20046;-43
2021/11/08 10:54:53;;;;;;;7.68;1.52;;;;;;;14.00;58.53;100868.97;5005363;28;20061;-51
2021/11/08 10:57:23;;;;;;;6.88;2.05;;;;;;;13.92;58.49;100876.84;5004411;28;20551;-51
2021/11/08 10:59:52;;;;;;;5.40;1.60;;;;;;;13.73;58.11;100881.22;4986740;28;20058;-57
2021/11/08 11:02:23;;;;;;;5.85;0.82;;;;;;;13.36;58.79;100888.19;5005061;28;20057;-54
2021/11/08 11:04:58;;;;;;;5.50;0.95;;;;;;;13.07;58.53;100878.66;5001629;28;20057;-48
2021/11/08 11:07:31;;;;;;;6.43;1.23;;;;;;;12.87;59.19;100876.03;4999271;28;20046;-52
2021/11/08 11:10:09;;;;;;;12.85;1.65;;;;;;;12.70;59.42;100878.63;5000908;28;20108;-46
2021/11/08 11:12:41;;;;;;;8.20;1.20;;;;;;;12.70;59.65;100870.84;4998233;28;20054;-53
2021/11/08 11:15:11;;;;;;;4.63;2.05;;;;;;;12.65;60.26;100872.53;5002235;28;20116;-50
2021/11/08 11:17:41;;;;;;;8.95;2.00;;;;;;;12.64;60.42;100870.81;5001272;28;20172;-50
2021/11/08 11:20:13;;;;;;;11.27;1.52;;;;;;;12.59;60.74;100869.06;5001381;28;20057;-52
2021/11/08 11:22:54;;;;;;;5.53;1.30;;;;;;;12.57;60.32;100865.59;4996272;28;20104;-48
2021/11/08 11:25:22;;;;;;;5.35;1.50;;;;;;;12.63;60.94;100859.53;5000384;28;20096;-52
2021/11/08 11:27:51;;;;;;;9.95;1.60;;;;;;;12.64;60.18;100850.91;4999450;28;20054;-49
2021/11/08 11:30:24;;;;;;;5.68;1.00;;;;;;;12.63;61.35;100856.09;4996111;28;20053;-55
2021/11/08 11:32:57;;;;;;;10.35;2.08;;;;;;;12.63;60.03;100853.50;5003758;28;20359;-51
2021/11/08 11:35:32;;;;;;;7.65;1.20;;;;;;;12.60;59.76;100850.00;5000978;28;20478;-51
2021/11/08 11:38:04;;;;;;;;;;;;;;;12.49;61.47;100850.88;5000485;28;20453;-51
2021/11/08 11:40:34;;;;;;;7.28;1.05;;;;;;;12.58;60.76;100841.38;5002924;28;19922;-50
2021/11/08 11:43:11;;;;;;;9.07;1.77;;;;;;;12.50;61.19;100837.84;4999043;28;20042;-51
2021/11/08 11:45:47;;;;;;;12.05;1.05;;;;;;;12.55;61.15;100846.56;5001252;28;20054;-48
2021/11/08 11:48:14;;;;;;;10.70;1.00;;;;;;;12.62;60.06;100851.75;4997661;28;20072;-49
2021/11/08 11:51:02;;;;;;;6.97;1.70;;;;;;;12.64;61.50;100856.09;5003077;28;20116;-48
2021/11/08 11:53:31;;;;;;;6.03;1.17;;;;;;;12.69;61.29;100849.16;4999752;28;20545;-53
2021/11/08 11:55:58;;;;;;;12.15;1.88;;;;;;;12.70;60.20;100850.03;5003431;28;20501;-53
2021/11/08 11:58:25;;;;;;;10.52;2.33;;;;;;;12.66;59.99;100845.72;5002905;28;20096;-46
2021/11/08 12:00:53;;;;;;;9.38;1.27;;;;;;;12.60;60.46;100844.81;4997419;28;20494;-49
2021/11/08 12:03:20;;;;;;;14.98;1.90;;;;;;;12.58;60.56;100841.38;4997624;28;20062;-47
2021/11/08 12:05:54;;;;;;;8.95;1.92;;;;;;;12.55;60.31;100830.97;5000633;28;20045;-48
2021/11/08 12:08:22;;;;;;;5.63;1.63;;;;;;;12.48;61.58;100834.41;5006651;28;20052;-52
2021/11/08 12:10:51;;;;;;;14.25;2.05;;;;;;;12.43;61.21;100833.53;5004732;28;20057;-51
2021/11/08 12:13:21;;;;;;;8.77;1.67;;;;;;;12.36;61.90;100829.19;5008520;28;20478;-49
2021/11/08 12:15:50;;;;;;;6.00;1.17;;;;;;;12.32;61.09;100829.19;5006347;28;20626;-51
2021/11/08 12:18:19;;;;;;;4.70;1.45;;;;;;;12.31;60.88;100827.44;5004245;28;20050;-45
2021/11/08 12:20:51;;;;;;;8.70;1.42;;;;;;;12.31;61.25;100830.06;5004008;28;20050;-47
2021/11/08 12:23:23;;;;;;;6.30;1.38;;;;;;;12.31;61.86;100817.06;5006261;28;20108;-51
2021/11/08 12:25:51;;;;;;;7.18;1.40;;;;;;;12.23;61.38;100818.78;5005051;28;20045;-49
2021/11/08 12:28:26;;;;;;;4.88;1.33;;;;;;;12.19;62.51;100812.69;5004682;28;20064;-50
2021/11/08 12:30:57;;;;;;;11.57;1.73;;;;;;;12.23;62.22;100815.28;5002422;28;20057;-46
2021/11/08 12:33:31;;;;;;;7.93;1.52;;;;;;;12.23;61.52;100812.69;5002907;28;20046;-45
2021/11/08 12:36:01;;;;;;;5.13;0.90;;;;;;;12.20;61.84;100816.16;5002174;28;20142;-53
2021/11/08 12:38:30;;;;;;;10.13;1.15;;;;;;;12.15;62.05;100813.53;5003627;28;20057;-49
2021/11/08 12:41:17;;;;;;;11.95;1.67;;;;;;;12.06;61.93;100805.72;5000508;28;20093;-46
2021/11/08 12:43:53;;;;;;;3.95;1.33;;;;;;;12.07;62.94;100808.34;4996472;28;20650;-45
2021/11/08 12:46:22;;;;;;;4.93;1.48;;;;;;;12.10;62.65;100801.41;4995700;28;20395;-47
2021/11/08 12:48:50;;;;;;;10.27;1.75;;;;;;;12.12;62.24;100804.88;5003067;28;20042;-49
2021/11/08 12:51:21;;;;;;;6.57;1.23;;;;;;;12.14;63.31;100798.84;4990632;28;20046;-46
2021/11/08 12:54:01;;;;;;;6.07;1.23;;;;;;;12.07;62.87;100787.56;5003394;28;20108;-48
2021/11/08 12:56:32;;;;;;;5.30;1.42;;;;;;;12.11;62.13;100795.34;5000659;28;20050;-48
2021/11/08 12:59:00;;;;;;;9.32;1.50;;;;;;;12.14;62.39;100790.16;4998952;28;20103;-53
2021/11/08 13:01:52;;;;;;;6.03;1.13;;;;;;;12.15;62.47;100784.09;4999224;28;20050;-48
2021/11/08 13:04:21;;;;;;;5.57;1.00;;;;;;;12.24;62.22;100788.47;4995955;28;20049;-47
2021/11/08 13:06:48;;;;;;;12.82;1.65;;;;;;;12.28;63.00;100780.69;5000804;28;20061;-48
2021/11/08 13:09:19;;;;;;;8.27;0.82;;;;;;;12.34;62.03;100783.28;5000483;28;20054;-49
2021/11/08 13:11:51;;;;;;;8.82;1.27;;;;;;;12.41;63.03;100784.19;4994787;28;20049;-48
2021/11/08 13:14:34;;;;;;;12.20;1.20;;;;;;;12.44;62.71;100780.72;4997412;28;20042;-47